createdAt,value
2024-03-16T00:00:08.001Z,91.29
2024-03-16T00:03:11.862Z,91.19
2024-03-16T00:06:15.826Z,91.62
2024-03-16T00:09:19.539Z,91.42
2024-03-16T00:12:23.160Z,91.69
2024-03-16T00:15:25.829Z,92.49
2024-03-16T00:18:28.452Z,92.48
2024-03-16T00:21:30.989Z,93.61
2024-03-16T00:24:33.566Z,93.97
2024-03-16T00:27:36.448Z,94.23
2024-03-16T00:30:38.995Z,94.75
2024-03-16T00:33:41.597Z,93.67
2024-03-16T00:36:44.151Z,93.54
2024-03-16T00:39:46.783Z,93.53
2024-03-16T00:42:49.401Z,93.49
2024-03-16T00:45:52.149Z,93.09
2024-03-16T00:48:54.750Z,93.14
2024-03-16T00:51:58.608Z,94.39
2024-03-16T00:55:01.241Z,93.69
2024-03-16T00:58:04.654Z,94.08
2024-03-16T01:01:07.282Z,94.09
2024-03-16T01:04:10.194Z,94.03
2024-03-16T01:07:14.239Z,94.93
2024-03-16T01:10:17.633Z,93.93
2024-03-16T01:13:20.159Z,94.17
2024-03-16T01:16:22.709Z,94.22
2024-03-16T01:19:26.359Z,94.50
2024-03-16T01:22:28.856Z,94.47
2024-03-16T01:25:31.460Z,94.97
2024-03-16T01:28:34.907Z,93.99
2024-03-16T01:31:38.590Z,95.42
2024-03-16T01:34:41.156Z,94.61
2024-03-16T01:37:44.183Z,94.33
2024-03-16T01:40:46.954Z,94.94
2024-03-16T01:43:49.805Z,93.97
2024-03-16T01:46:52.474Z,94.33
2024-03-16T01:49:55.005Z,93.96
2024-03-16T01:52:58.272Z,93.53
2024-03-16T01:56:00.943Z,94.85
2024-03-16T01:59:04.143Z,94.93
2024-03-16T02:02:29.580Z,94.89
2024-03-16T02:05:32.653Z,94.98
2024-03-16T02:08:35.207Z,95.71
2024-03-16T02:11:37.772Z,96.03
2024-03-16T02:14:40.442Z,96.41
2024-03-16T02:17:43.250Z,97.20
2024-03-16T02:20:45.965Z,97.45
2024-03-16T02:23:49.372Z,96.83
2024-03-16T02:26:53.211Z,96.84
2024-03-16T02:29:55.769Z,96.60
2024-03-16T02:32:58.381Z,96.06
2024-03-16T02:36:00.965Z,95.58
2024-03-16T02:39:03.648Z,94.59
2024-03-16T02:42:06.371Z,94.72
2024-03-16T02:45:09.088Z,94.80
2024-03-16T02:48:12.577Z,95.30
2024-03-16T02:51:15.234Z,94.79
2024-03-16T02:54:18.045Z,94.84
2024-03-16T02:57:20.602Z,95.32
2024-03-16T03:00:23.633Z,95.62
2024-03-16T03:03:26.146Z,94.37
2024-03-16T03:06:28.781Z,95.13
2024-03-16T03:09:33.182Z,94.22
2024-03-16T03:12:35.759Z,94.10
2024-03-16T03:15:38.807Z,95.26
2024-03-16T03:18:41.455Z,93.05
2024-03-16T03:21:44.057Z,93.03
2024-03-16T03:24:49.398Z,94.03
2024-03-16T03:27:52.177Z,93.12
2024-03-16T03:30:54.928Z,93.17
2024-03-16T03:33:57.606Z,93.18
2024-03-16T03:37:00.138Z,92.87
2024-03-16T03:40:02.844Z,92.64
2024-03-16T03:43:06.849Z,92.99
2024-03-16T03:46:14.757Z,92.31
2024-03-16T03:49:27.781Z,91.57
2024-03-16T03:52:30.318Z,90.69
2024-03-16T03:55:33.423Z,91.53
2024-03-16T03:58:35.941Z,92.59
2024-03-16T04:01:38.706Z,94.40
2024-03-16T04:04:43.189Z,96.02
2024-03-16T04:07:45.725Z,96.25
2024-03-16T04:10:48.590Z,99.12
2024-03-16T04:13:51.200Z,100.00
2024-03-16T04:16:53.739Z,100.00
2024-03-16T04:19:56.394Z,100.00
2024-03-16T04:22:59.052Z,100.00
2024-03-16T04:26:01.581Z,100.00
2024-03-16T04:29:04.052Z,100.00
2024-03-16T04:32:06.681Z,100.00
2024-03-16T04:35:09.847Z,100.00
2024-03-16T04:38:14.349Z,100.00
2024-03-16T04:41:17.222Z,100.00
2024-03-16T04:44:19.884Z,100.00
2024-03-16T04:47:22.424Z,100.00
2024-03-16T04:50:25.516Z,100.00
2024-03-16T04:53:28.046Z,100.00
2024-03-16T04:56:30.657Z,100.00
2024-03-16T04:59:33.171Z,100.00
2024-03-16T05:02:35.643Z,100.00
2024-03-16T05:05:38.162Z,100.00
2024-03-16T05:08:41.921Z,100.00
2024-03-16T05:11:45.640Z,100.00
2024-03-16T05:14:48.157Z,100.00
2024-03-16T05:17:51.080Z,100.00
2024-03-16T05:20:53.645Z,100.00
2024-03-16T05:23:56.567Z,100.00
2024-03-16T05:26:59.136Z,100.00
2024-03-16T05:30:01.602Z,100.00
2024-03-16T05:33:05.572Z,100.00
2024-03-16T05:36:10.769Z,100.00
2024-03-16T05:39:16.099Z,100.00
2024-03-16T05:42:18.905Z,100.00
2024-03-16T05:45:22.202Z,100.00
2024-03-16T05:48:24.827Z,100.00
2024-03-16T05:51:28.521Z,100.00
2024-03-16T05:54:35.380Z,100.00
2024-03-16T05:57:38.700Z,100.00
2024-03-16T06:00:42.123Z,100.00
2024-03-16T06:03:44.633Z,100.00
2024-03-16T06:06:47.729Z,100.00
2024-03-16T06:09:50.460Z,100.00
2024-03-16T06:12:53.292Z,100.00
2024-03-16T06:15:55.883Z,100.00
2024-03-16T06:19:00.248Z,100.00
2024-03-16T06:22:04.275Z,100.00
2024-03-16T06:25:07.468Z,100.00
2024-03-16T06:28:10.738Z,100.00
2024-03-16T06:31:13.380Z,100.00
2024-03-16T06:34:16.005Z,100.00
2024-03-16T06:37:18.844Z,100.00
2024-03-16T06:40:21.832Z,97.76
2024-03-16T06:43:25.349Z,96.71
2024-03-16T06:46:27.978Z,90.92
2024-03-16T06:49:30.801Z,89.82
2024-03-16T06:52:33.349Z,90.49
2024-03-16T06:55:36.098Z,89.18
2024-03-16T06:58:38.639Z,87.48
2024-03-16T07:01:41.156Z,88.06
2024-03-16T07:04:44.038Z,87.84
2024-03-16T07:07:46.502Z,85.38
2024-03-16T07:10:49.059Z,84.08
2024-03-16T07:13:52.127Z,84.16
2024-03-16T07:16:56.134Z,84.18
2024-03-16T07:19:58.724Z,83.93
2024-03-16T07:23:01.241Z,84.65
2024-03-16T07:26:04.082Z,84.29
2024-03-16T07:29:06.648Z,85.40
2024-03-16T07:32:09.257Z,84.16
2024-03-16T07:35:12.502Z,84.22
2024-03-16T07:38:15.224Z,83.64
2024-03-16T07:41:17.800Z,84.50
2024-03-16T07:44:20.461Z,84.08
2024-03-16T07:47:23.030Z,83.35
2024-03-16T07:50:25.497Z,83.48
2024-03-16T07:53:28.687Z,83.77
2024-03-16T07:56:32.426Z,83.06
2024-03-16T07:59:34.933Z,83.39
2024-03-16T08:02:37.438Z,83.84
2024-03-16T08:05:40.567Z,86.63
2024-03-16T08:08:45.313Z,82.84
2024-03-16T08:11:48.060Z,83.12
2024-03-16T08:14:50.571Z,83.53
2024-03-16T08:17:55.502Z,83.91
2024-03-16T08:21:01.402Z,82.64
2024-03-16T08:24:04.173Z,83.01
2024-03-16T08:27:06.798Z,81.54
2024-03-16T08:30:10.190Z,79.93
2024-03-16T08:33:12.699Z,80.19
2024-03-16T08:36:16.287Z,77.19
2024-03-16T08:39:19.698Z,75.75
2024-03-16T08:42:22.289Z,76.67
2024-03-16T08:45:24.903Z,75.90
2024-03-16T08:48:27.450Z,78.53
2024-03-16T08:51:30.159Z,77.31
2024-03-16T08:54:34.194Z,76.41
2024-03-16T08:57:36.857Z,74.00
2024-03-16T09:00:39.612Z,76.21
2024-03-16T09:03:42.260Z,74.37
2024-03-16T09:06:46.004Z,73.85
2024-03-16T09:09:48.703Z,75.80
2024-03-16T09:12:51.210Z,75.75
2024-03-16T09:15:53.856Z,74.11
2024-03-16T09:18:56.536Z,73.56
2024-03-16T09:21:59.581Z,72.59
2024-03-16T09:25:06.776Z,72.16
2024-03-16T09:28:09.750Z,72.72
2024-03-16T09:31:12.279Z,73.21
2024-03-16T09:34:15.575Z,74.24
2024-03-16T09:37:18.304Z,73.64
2024-03-16T09:40:21.188Z,73.94
